createdAt,value
2023-03-22T00:00:21.642Z,100619.03
2023-03-22T00:03:24.591Z,100610.44
2023-03-22T00:06:28.573Z,100613.72
2023-03-22T00:09:31.767Z,100611.41
2023-03-22T00:12:34.343Z,100602.03
2023-03-22T00:15:37.674Z,100599.97
2023-03-22T00:18:41.704Z,100600.31
2023-03-22T00:21:46.279Z,100594.00
2023-03-22T00:24:48.967Z,100584.19
2023-03-22T00:27:51.707Z,100593.84
2023-03-22T00:30:56.470Z,100589.72
2023-03-22T00:33:59.224Z,100578.22
2023-03-22T00:37:03.366Z,100560.41
2023-03-22T00:40:08.812Z,100574.47
2023-03-22T00:43:11.393Z,100571.63
2023-03-22T00:46:15.651Z,100576.91
2023-03-22T00:49:18.838Z,100559.81
2023-03-22T00:52:23.235Z,100563.50
2023-03-22T00:55:25.836Z,100565.09
2023-03-22T00:58:28.457Z,100565.03
2023-03-22T01:01:31.661Z,100553.53
2023-03-22T01:04:35.571Z,100555.59
2023-03-22T01:07:41.610Z,100562.09
2023-03-22T01:10:46.001Z,100553.28
2023-03-22T01:13:48.940Z,100553.28
2023-03-22T01:16:54.775Z,100551.19
2023-03-22T01:19:57.381Z,100541.34
2023-03-22T01:23:01.427Z,100528.28
2023-03-22T01:26:04.432Z,100529.25
2023-03-22T01:29:07.187Z,100544.31
2023-03-22T01:32:09.796Z,100526.41
2023-03-22T01:35:12.576Z,100517.31
2023-03-22T01:38:16.546Z,100517.69
2023-03-22T01:41:19.138Z,100514.34
2023-03-22T01:44:23.577Z,100513.75
2023-03-22T01:47:26.265Z,100508.28
2023-03-22T01:50:30.092Z,100502.16
2023-03-22T01:53:37.685Z,100499.31
2023-03-22T01:56:41.978Z,100487.41
2023-03-22T01:59:45.900Z,100480.28
2023-03-22T02:02:51.392Z,100480.41
2023-03-22T02:05:55.631Z,100481.53
2023-03-22T02:08:59.882Z,100478.94
2023-03-22T02:12:14.283Z,100481.25
2023-03-22T02:15:23.524Z,100486.00
2023-03-22T02:18:40.104Z,100469.72
2023-03-22T02:22:14.235Z,100460.59
2023-03-22T02:25:42.619Z,100461.00
2023-03-22T02:28:50.928Z,100460.78
2023-03-22T02:32:33.878Z,100459.22
2023-03-22T02:36:07.635Z,100459.00
2023-03-22T02:39:32.397Z,100448.16
2023-03-22T02:42:45.278Z,100455.91
2023-03-22T02:45:54.854Z,100446.28
2023-03-22T02:49:05.566Z,100442.97
2023-03-22T02:52:17.343Z,100445.88
2023-03-22T02:55:27.448Z,100447.59
2023-03-22T02:58:34.863Z,100444.34
2023-03-22T03:01:41.610Z,100437.16
2023-03-22T03:04:47.395Z,100437.75
2023-03-22T03:07:55.641Z,100437.50
2023-03-22T03:10:59.686Z,100423.63
2023-03-22T03:14:02.370Z,100425.44
2023-03-22T03:17:18.747Z,100420.72
2023-03-22T03:20:30.245Z,100421.25
2023-03-22T03:23:46.613Z,100424.84
2023-03-22T03:26:57.308Z,100416.09
2023-03-22T03:30:03.422Z,100416.34
2023-03-22T03:33:10.475Z,100417.19
2023-03-22T03:36:17.885Z,100410.06
2023-03-22T03:39:22.076Z,100419.66
2023-03-22T03:42:29.394Z,100412.91
2023-03-22T03:45:32.691Z,100403.47
2023-03-22T03:48:38.038Z,100406.38
2023-03-22T03:51:49.437Z,100401.06
2023-03-22T03:54:52.180Z,100400.06
2023-03-22T03:57:56.131Z,100398.03
2023-03-22T04:00:58.768Z,100408.75
2023-03-22T04:04:01.410Z,100410.06
2023-03-22T04:07:06.531Z,100405.75
2023-03-22T04:10:09.941Z,100399.66
2023-03-22T04:13:13.849Z,100410.66
2023-03-22T04:16:16.465Z,100401.72
2023-03-22T04:19:19.735Z,100400.88
2023-03-22T04:22:22.313Z,100399.28
2023-03-22T04:25:29.845Z,100393.31
2023-03-22T04:28:34.254Z,100393.03
2023-03-22T04:31:37.558Z,100401.38
2023-03-22T04:34:40.297Z,100397.06
2023-03-22T04:37:43.749Z,100390.00
2023-03-22T04:40:46.699Z,100386.31
2023-03-22T04:43:50.966Z,100384.44
2023-03-22T04:46:53.597Z,100380.50
2023-03-22T04:49:56.306Z,100378.31
2023-03-22T04:52:59.019Z,100387.59
2023-03-22T04:56:02.672Z,100385.19
2023-03-22T04:59:06.619Z,100381.63
2023-03-22T05:02:09.196Z,100383.47
2023-03-22T05:05:11.787Z,100377.44
2023-03-22T05:08:14.353Z,100365.91
2023-03-22T05:11:19.373Z,100366.66
2023-03-22T05:14:23.417Z,100365.56
2023-03-22T05:17:26.011Z,100366.94
2023-03-22T05:20:28.579Z,100368.63
2023-03-22T05:23:31.177Z,100365.69
2023-03-22T05:26:33.853Z,100357.50
2023-03-22T05:29:37.924Z,100361.25
2023-03-22T05:32:43.772Z,100365.84
2023-03-22T05:35:46.410Z,100371.00
2023-03-22T05:38:49.730Z,100369.22
2023-03-22T05:41:52.322Z,100369.84
2023-03-22T05:44:56.272Z,100373.09
2023-03-22T05:47:59.242Z,100366.38
2023-03-22T05:51:03.318Z,100386.75
2023-03-22T05:54:07.536Z,100372.72
2023-03-22T05:57:10.317Z,100376.97
2023-03-22T06:00:16.873Z,100378.66
2023-03-22T06:03:19.507Z,100375.66
2023-03-22T06:06:22.164Z,100378.31
2023-03-22T06:09:24.758Z,100367.41
2023-03-22T06:12:30.031Z,100384.06
2023-03-22T06:15:34.173Z,100377.63
2023-03-22T06:18:36.803Z,100372.88
2023-03-22T06:21:39.389Z,100373.94
2023-03-22T06:24:42.406Z,100369.25
2023-03-22T06:27:44.985Z,100370.56
2023-03-22T06:30:48.960Z,100363.47
2023-03-22T06:33:52.613Z,100360.31
2023-03-22T06:36:56.369Z,100358.44
2023-03-22T06:39:58.977Z,100375.06
2023-03-22T06:43:04.604Z,100372.28
2023-03-22T06:46:10.396Z,100370.53
2023-03-22T06:49:12.976Z,100362.09
2023-03-22T06:52:15.610Z,100359.47
2023-03-22T06:55:18.281Z,100370.97
2023-03-22T06:58:20.911Z,100371.53
2023-03-22T07:01:25.560Z,100367.81
2023-03-22T07:04:29.125Z,100371.81
2023-03-22T07:07:31.725Z,100373.53
2023-03-22T07:10:34.396Z,100371.16
2023-03-22T07:13:36.990Z,100368.69
2023-03-22T07:16:40.944Z,100362.44
2023-03-22T07:19:44.912Z,100363.97
2023-03-22T07:22:47.510Z,100356.38
2023-03-22T07:25:50.274Z,100360.91
2023-03-22T07:28:53.053Z,100349.63
2023-03-22T07:31:57.091Z,100349.94
2023-03-22T07:34:59.698Z,100344.53
2023-03-22T07:38:02.307Z,100342.66
2023-03-22T07:41:05.910Z,100337.84
2023-03-22T07:44:17.621Z,100336.56
2023-03-22T07:47:37.762Z,100341.25
2023-03-22T07:50:42.890Z,100335.63
2023-03-22T07:53:45.610Z,100334.00
2023-03-22T07:56:48.915Z,100325.13
2023-03-22T07:59:51.533Z,100329.25
2023-03-22T08:02:55.645Z,100326.00
2023-03-22T08:06:03.734Z,100322.81
2023-03-22T08:09:08.290Z,100309.75
2023-03-22T08:12:10.994Z,100298.59
2023-03-22T08:15:13.577Z,100292.97
2023-03-22T08:18:17.498Z,100282.09
2023-03-22T08:21:20.232Z,100276.38
2023-03-22T08:24:22.832Z,100277.00
2023-03-22T08:27:25.541Z,100262.94
2023-03-22T08:30:28.120Z,100263.69
2023-03-22T08:33:32.056Z,100254.94
2023-03-22T08:36:34.796Z,100246.84
2023-03-22T08:39:37.766Z,100244.88
2023-03-22T08:42:40.327Z,100246.06
2023-03-22T08:45:43.287Z,100236.38
2023-03-22T08:48:50.603Z,100229.22
2023-03-22T08:51:53.236Z,100236.13
2023-03-22T08:54:56.244Z,100226.97
2023-03-22T08:57:59.742Z,100227.13
2023-03-22T09:01:02.424Z,100238.50
2023-03-22T09:04:07.858Z,100227.50
2023-03-22T09:07:11.788Z,100220.13
2023-03-22T09:10:15.094Z,100228.59
2023-03-22T09:13:17.786Z,100223.59
2023-03-22T09:16:20.690Z,100217.69
2023-03-22T09:19:24.726Z,100218.25
2023-03-22T09:22:27.665Z,100217.41
2023-03-22T09:25:30.665Z,100221.13
2023-03-22T09:28:33.714Z,100210.34
2023-03-22T09:31:36.313Z,100200.16
2023-03-22T09:34:40.593Z,100196.56
2023-03-22T09:37:45.560Z,100200.78
2023-03-22T09:41:00.314Z,100199.09
2023-03-22T09:44:06.445Z,100198.19
2023-03-22T09:47:16.939Z,100192.34
2023-03-22T09:50:23.800Z,100177.25
2023-03-22T09:53:29.514Z,100181.25
2023-03-22T09:56:33.112Z,100175.00
2023-03-22T09:59:41.707Z,100166.84
2023-03-22T10:02:58.886Z,100161.97
2023-03-22T10:06:06.079Z,100165.13
2023-03-22T10:09:15.495Z,100164.19
2023-03-22T10:12:26.252Z,100171.44
2023-03-22T10:15:33.198Z,100164.78
2023-03-22T10:18:38.950Z,100156.78
2023-03-22T10:21:43.083Z,100162.28
2023-03-22T10:24:48.990Z,100152.19
2023-03-22T10:27:52.867Z,100166.59
2023-03-22T10:30:57.125Z,100156.41
2023-03-22T10:34:03.528Z,100158.97
2023-03-22T10:37:11.492Z,100155.66
2023-03-22T10:40:19.424Z,100160.19
2023-03-22T10:43:26.436Z,100162.97
2023-03-22T10:46:35.784Z,100164.22
2023-03-22T10:49:43.334Z,100164.38
2023-03-22T10:52:52.516Z,100168.28
2023-03-22T10:55:55.272Z,100158.03
2023-03-22T10:58:58.034Z,100162.78
2023-03-22T11:02:01.885Z,100163.81
2023-03-22T11:05:07.062Z,100159.44
2023-03-22T11:08:15.305Z,100170.84
2023-03-22T11:11:23.216Z,100156.97
2023-03-22T11:14:31.155Z,100160.47
2023-03-22T11:17:35.962Z,100165.03
2023-03-22T11:20:41.572Z,100159.41
2023-03-22T11:23:53.924Z,100170.59
2023-03-22T11:27:04.833Z,100159.56
2023-03-22T11:30:20.991Z,100167.84
2023-03-22T11:33:25.805Z,100178.03
2023-03-22T11:36:30.015Z,100166.97
2023-03-22T11:39:34.015Z,100168.47
2023-03-22T11:42:36.895Z,100168.47
2023-03-22T11:45:43.801Z,100171.72
2023-03-22T11:48:48.263Z,100172.63
2023-03-22T11:51:50.986Z,100175.03
2023-03-22T11:54:56.829Z,100170.00
2023-03-22T11:57:59.514Z,100181.19
2023-03-22T12:01:04.262Z,100162.75
2023-03-22T12:04:11.405Z,100165.94
2023-03-22T12:07:17.247Z,100163.56
2023-03-22T12:10:26.355Z,100162.56
2023-03-22T12:13:33.998Z,100155.94
2023-03-22T12:16:45.721Z,100150.13
2023-03-22T12:19:58.929Z,100142.03
2023-03-22T12:23:03.218Z,100151.56
2023-03-22T12:26:13.479Z,100147.28
2023-03-22T12:29:19.799Z,100151.22
2023-03-22T12:32:27.893Z,100157.31
2023-03-22T12:35:32.818Z,100149.09
2023-03-22T12:38:42.160Z,100157.38
2023-03-22T12:41:49.592Z,100149.66
2023-03-22T12:45:05.030Z,100144.00
2023-03-22T12:48:15.297Z,100141.59
2023-03-22T12:51:18.039Z,100149.88
2023-03-22T12:54:25.185Z,100133.94
2023-03-22T12:57:29.417Z,100141.50
2023-03-22T13:00:37.834Z,100150.94
2023-03-22T13:03:46.789Z,100159.22
2023-03-22T13:06:58.226Z,100156.19
2023-03-22T13:10:02.437Z,100166.44
2023-03-22T13:13:18.151Z,100159.34
2023-03-22T13:16:24.585Z,100149.09
2023-03-22T13:19:38.451Z,100157.88
2023-03-22T13:23:05.564Z,100151.22
2023-03-22T13:26:16.443Z,100151.25
2023-03-22T13:29:24.280Z,100143.84
2023-03-22T13:32:33.138Z,100143.63
2023-03-22T13:35:44.426Z,100150.69
2023-03-22T13:38:56.580Z,100154.47
2023-03-22T13:42:06.830Z,100169.75
2023-03-22T13:45:31.437Z,100153.84
2023-03-22T13:48:43.840Z,100157.34
2023-03-22T13:51:46.802Z,100154.38
2023-03-22T13:54:52.337Z,100147.94
2023-03-22T13:57:59.811Z,100144.31
2023-03-22T14:01:06.009Z,100144.91
2023-03-22T14:04:12.935Z,100149.84
2023-03-22T14:07:24.051Z,100149.47
2023-03-22T14:10:32.317Z,100151.94
2023-03-22T14:13:40.564Z,100153.66
2023-03-22T14:16:47.995Z,100157.44
2023-03-22T14:19:51.047Z,100162.66
